createdAt,value
2018-05-10T00:00:35.995Z,53.08
2018-05-10T00:03:04.348Z,52.84
2018-05-10T00:05:33.628Z,53.57
2018-05-10T00:08:01.981Z,54.26
2018-05-10T00:10:31.118Z,54.37
2018-05-10T00:12:59.468Z,53.96
2018-05-10T00:15:27.796Z,53.63
2018-05-10T00:17:57.640Z,53.60
2018-05-10T00:20:25.956Z,53.89
2018-05-10T00:22:54.310Z,53.92
2018-05-10T00:25:22.641Z,54.46
2018-05-10T00:27:51.003Z,54.94
2018-05-10T00:30:19.854Z,55.50
2018-05-10T00:32:48.209Z,55.69
2018-05-10T00:35:16.601Z,55.71
2018-05-10T00:37:45.201Z,56.02
2018-05-10T00:40:13.622Z,55.28
2018-05-10T00:42:41.975Z,54.92
2018-05-10T00:45:10.324Z,54.60
2018-05-10T00:47:38.673Z,54.91
2018-05-10T00:50:07.014Z,55.92
2018-05-10T00:52:35.724Z,56.84
2018-05-10T00:55:04.065Z,55.77
2018-05-10T00:57:33.128Z,55.78
2018-05-10T01:00:01.455Z,55.66
2018-05-10T01:02:29.825Z,55.77
2018-05-10T01:04:58.169Z,56.40
2018-05-10T01:07:26.517Z,56.47
2018-05-10T01:09:54.848Z,56.64
2018-05-10T01:12:23.209Z,56.52
2018-05-10T01:14:51.770Z,56.72
2018-05-10T01:17:20.151Z,56.64
2018-05-10T01:19:48.514Z,57.52
2018-05-10T01:22:16.908Z,58.99
2018-05-10T01:24:45.519Z,59.03
2018-05-10T01:27:14.206Z,59.97
2018-05-10T01:29:42.540Z,59.67
2018-05-10T01:32:10.876Z,59.27
2018-05-10T01:34:39.222Z,59.24
2018-05-10T01:37:07.569Z,58.87
2018-05-10T01:39:35.895Z,59.26
2018-05-10T01:42:05.504Z,59.27
2018-05-10T01:44:33.903Z,60.21
2018-05-10T01:47:02.881Z,60.50
2018-05-10T01:49:31.213Z,60.49
2018-05-10T01:51:59.578Z,59.72
2018-05-10T01:54:27.902Z,59.62
2018-05-10T01:56:56.266Z,59.50
2018-05-10T01:59:24.592Z,59.35
2018-05-10T02:01:52.942Z,59.30
2018-05-10T02:04:21.268Z,59.41
2018-05-10T02:06:49.634Z,59.90
2018-05-10T02:09:18.697Z,60.31
2018-05-10T02:11:47.053Z,59.97
2018-05-10T02:14:15.368Z,60.21
2018-05-10T02:16:43.731Z,61.14
2018-05-10T02:19:12.084Z,61.57
2018-05-10T02:21:40.426Z,61.41
2018-05-10T02:24:08.777Z,61.80
2018-05-10T02:26:37.110Z,61.84
2018-05-10T02:29:05.583Z,61.67
2018-05-10T02:31:34.238Z,61.27
2018-05-10T02:34:02.589Z,61.50
2018-05-10T02:36:30.931Z,61.16
2018-05-10T02:38:59.269Z,60.73
2018-05-10T02:41:27.606Z,61.32
2018-05-10T02:43:55.954Z,61.27
2018-05-10T02:46:24.277Z,60.99
2018-05-10T02:48:53.365Z,61.50
2018-05-10T02:51:21.703Z,61.32
2018-05-10T02:53:50.051Z,60.88
2018-05-10T02:56:18.381Z,60.40
2018-05-10T02:58:46.729Z,60.46
2018-05-10T03:01:15.053Z,60.91
2018-05-10T03:03:43.418Z,60.84
2018-05-10T03:06:11.742Z,61.11
2018-05-10T03:08:40.102Z,61.24
2018-05-10T03:11:08.433Z,62.03
2018-05-10T03:13:37.206Z,61.94
2018-05-10T03:16:05.841Z,62.23
2018-05-10T03:18:34.391Z,62.56
2018-05-10T03:21:02.705Z,63.77
2018-05-10T03:23:31.077Z,63.80
2018-05-10T03:25:59.728Z,64.17
2018-05-10T03:28:28.083Z,64.74
2018-05-10T03:30:56.418Z,65.14
2018-05-10T03:33:25.162Z,65.05
2018-05-10T03:35:53.925Z,65.60
2018-05-10T03:38:22.285Z,65.17
2018-05-10T03:40:50.609Z,65.34
2018-05-10T03:43:19.007Z,65.61
2018-05-10T03:45:48.052Z,65.61
2018-05-10T03:48:16.629Z,67.06
2018-05-10T03:50:45.075Z,66.26
2018-05-10T03:53:14.152Z,66.11
2018-05-10T03:55:42.494Z,65.87
2018-05-10T03:58:10.848Z,65.82
2018-05-10T04:00:39.177Z,65.94
2018-05-10T04:06:36.302Z,65.97
2018-05-10T04:09:16.385Z,65.86
2018-05-10T04:11:45.001Z,66.14
2018-05-10T04:14:14.107Z,66.07
2018-05-10T04:16:42.478Z,67.23
2018-05-10T04:19:10.838Z,67.72
2018-05-10T04:21:39.159Z,67.32
2018-05-10T04:24:07.529Z,67.04
2018-05-10T04:26:35.863Z,66.00
2018-05-10T04:29:04.219Z,65.21
2018-05-10T04:31:32.544Z,64.68
2018-05-10T04:34:00.909Z,64.61
2018-05-10T04:36:29.250Z,64.20
2018-05-10T04:38:57.608Z,64.76
2018-05-10T04:41:25.940Z,64.79
2018-05-10T04:43:54.313Z,64.45
2018-05-10T04:46:22.646Z,64.45
2018-05-10T04:48:51.033Z,64.03
2018-05-10T04:51:19.365Z,64.10
2018-05-10T04:53:47.740Z,64.60
2018-05-10T04:56:16.193Z,64.71
2018-05-10T04:58:44.548Z,65.48
2018-05-10T05:01:12.885Z,66.93
2018-05-10T05:03:41.227Z,67.59
2018-05-10T05:06:09.577Z,68.12
2018-05-10T05:08:37.990Z,69.09
2018-05-10T05:11:06.283Z,69.21
2018-05-10T05:13:34.615Z,69.13
2018-05-10T05:16:02.982Z,69.59
2018-05-10T05:18:31.594Z,70.50
2018-05-10T05:20:59.956Z,70.08
2018-05-10T05:23:28.294Z,69.90
2018-05-10T05:25:56.667Z,69.64
2018-05-10T05:28:25.007Z,69.74
2018-05-10T05:30:53.389Z,69.11
2018-05-10T05:33:21.740Z,69.13
2018-05-10T05:35:50.102Z,68.53
2018-05-10T05:38:18.449Z,68.90
2018-05-10T05:40:47.076Z,68.65
2018-05-10T05:43:15.824Z,68.21
2018-05-10T05:45:44.135Z,67.99
2018-05-10T05:48:12.492Z,67.96
2018-05-10T05:50:40.845Z,67.72
2018-05-10T05:53:10.438Z,66.88
2018-05-10T05:55:38.793Z,67.36
2018-05-10T05:58:07.544Z,66.66
2018-05-10T06:00:35.896Z,66.19
2018-05-10T06:03:04.270Z,66.08
2018-05-10T06:05:32.622Z,66.88
2018-05-10T06:08:01.916Z,66.83
2018-05-10T06:10:30.305Z,67.84
2018-05-10T06:12:58.679Z,67.09
2018-05-10T06:15:27.060Z,67.05
2018-05-10T06:17:55.393Z,67.80
2018-05-10T06:20:23.736Z,67.66
2018-05-10T06:22:52.120Z,67.56
2018-05-10T06:25:20.500Z,69.09
2018-05-10T06:27:48.996Z,68.02
2018-05-10T06:30:17.341Z,68.24
2018-05-10T06:32:45.957Z,68.12
2018-05-10T06:35:14.852Z,68.12
2018-05-10T06:37:43.467Z,68.37
2018-05-10T06:40:12.646Z,70.15
2018-05-10T06:42:41.025Z,69.61
2018-05-10T06:45:09.354Z,68.71
2018-05-10T06:47:37.989Z,69.34
2018-05-10T06:50:06.387Z,71.24
2018-05-10T06:52:35.187Z,70.93
2018-05-10T06:55:03.530Z,71.21
2018-05-10T06:57:31.869Z,70.64
2018-05-10T07:00:00.239Z,71.69
2018-05-10T07:02:28.608Z,70.82
2018-05-10T07:04:56.935Z,70.85
2018-05-10T07:07:25.887Z,70.10
2018-05-10T07:09:54.450Z,69.43
2018-05-10T07:12:22.663Z,70.31
2018-05-10T07:14:51.025Z,71.13
2018-05-10T07:17:19.358Z,71.59
2018-05-10T07:19:47.959Z,71.47
2018-05-10T07:22:16.741Z,71.54
2018-05-10T07:24:45.096Z,72.54
2018-05-10T07:27:13.858Z,72.57
2018-05-10T07:29:42.238Z,72.27
2018-05-10T07:32:10.581Z,71.89
2018-05-10T07:34:38.962Z,70.29
2018-05-10T07:37:07.294Z,68.76
2018-05-10T07:39:36.595Z,70.21
2018-05-10T07:42:04.958Z,68.93
2018-05-10T07:44:33.361Z,68.28
2018-05-10T07:47:02.601Z,67.52
2018-05-10T07:49:30.971Z,67.30
2018-05-10T07:51:59.314Z,65.48
2018-05-10T07:54:27.754Z,65.99
2018-05-10T07:56:56.092Z,66.30
2018-05-10T07:59:24.452Z,67.71
2018-05-10T08:01:52.816Z,66.11
2018-05-10T08:04:22.032Z,64.53
2018-05-10T08:06:50.371Z,65.47
2018-05-10T08:09:18.780Z,66.19
2018-05-10T08:11:47.122Z,66.60
2018-05-10T08:14:15.492Z,65.76
2018-05-10T08:16:44.837Z,65.36
2018-05-10T08:19:13.203Z,65.32
2018-05-10T08:21:41.542Z,65.03
2018-05-10T08:24:10.699Z,64.89
2018-05-10T08:26:39.744Z,64.00
2018-05-10T08:29:08.119Z,64.63
2018-05-10T08:31:36.456Z,64.69
2018-05-10T08:34:04.830Z,64.48
2018-05-10T08:36:33.878Z,63.26
2018-05-10T08:39:02.245Z,63.94
2018-05-10T08:41:30.593Z,63.92
2018-05-10T08:43:58.957Z,63.07
2018-05-10T08:46:27.310Z,63.36
2018-05-10T08:48:55.685Z,62.65
2018-05-10T08:51:24.031Z,61.93
2018-05-10T08:53:52.626Z,62.87
2018-05-10T08:56:20.970Z,61.13
2018-05-10T08:58:49.361Z,60.44
2018-05-10T09:01:17.769Z,59.81
2018-05-10T09:03:46.924Z,58.51
2018-05-10T09:06:15.261Z,58.78
2018-05-10T09:08:43.860Z,59.71
2018-05-10T09:11:12.968Z,57.96
2018-05-10T09:13:41.638Z,56.40
2018-05-10T09:16:09.986Z,55.82
2018-05-10T09:18:38.354Z,56.09
2018-05-10T09:21:06.694Z,57.07
2018-05-10T09:23:35.065Z,55.95
2018-05-10T09:26:03.489Z,54.68
2018-05-10T09:28:32.815Z,54.50
2018-05-10T09:31:01.150Z,55.58
2018-05-10T09:33:29.866Z,54.81
2018-05-10T09:35:58.487Z,55.32
2018-05-10T09:38:26.843Z,55.80
2018-05-10T09:40:55.182Z,57.00
2018-05-10T09:43:23.540Z,56.51
2018-05-10T09:45:51.934Z,57.73
2018-05-10T09:48:20.313Z,56.34
2018-05-10T09:50:48.909Z,54.59
2018-05-10T09:53:17.239Z,54.82
2018-05-10T09:55:46.417Z,55.41
2018-05-10T09:58:14.775Z,54.27
2018-05-10T10:00:43.116Z,54.36
2018-05-10T10:03:11.463Z,54.89
2018-05-10T10:05:39.829Z,55.17
2018-05-10T10:08:08.177Z,55.06
2018-05-10T10:10:36.553Z,55.08
2018-05-10T10:13:04.944Z,55.64
2018-05-10T10:15:33.357Z,55.50
2018-05-10T10:18:01.714Z,54.67
2018-05-10T10:20:30.075Z,54.33
2018-05-10T10:22:58.432Z,54.41
2018-05-10T10:25:26.804Z,53.35
2018-05-10T10:27:55.150Z,54.27
2018-05-10T10:30:23.507Z,53.24
2018-05-10T10:32:51.923Z,52.39
2018-05-10T10:35:20.282Z,52.37
2018-05-10T10:37:48.629Z,52.05
2018-05-10T10:40:17.392Z,52.17
2018-05-10T10:42:45.742Z,52.98
2018-05-10T10:45:14.116Z,53.27
2018-05-10T10:47:43.308Z,54.15
2018-05-10T10:50:14.898Z,53.08
2018-05-10T10:52:43.236Z,53.82
2018-05-10T10:55:11.602Z,53.31
2018-05-10T10:57:40.992Z,53.60
2018-05-10T11:00:09.803Z,53.08
2018-05-10T11:02:38.142Z,53.75
2018-05-10T11:05:06.501Z,54.37
2018-05-10T11:07:34.842Z,54.70
2018-05-10T11:10:03.193Z,54.29
2018-05-10T11:12:31.541Z,54.09
2018-05-10T11:14:59.934Z,54.43
2018-05-10T11:17:28.267Z,53.61
2018-05-10T11:19:56.973Z,54.80
2018-05-10T11:22:25.310Z,55.15
2018-05-10T11:24:54.524Z,55.41
2018-05-10T11:27:22.915Z,55.06
2018-05-10T11:29:51.265Z,55.16
2018-05-10T11:32:19.609Z,55.49
2018-05-10T11:34:47.985Z,55.08
2018-05-10T11:37:16.339Z,55.95
2018-05-10T11:39:44.717Z,55.92
2018-05-10T11:42:13.057Z,54.56
2018-05-10T11:44:42.275Z,54.19
2018-05-10T11:47:11.530Z,55.93
2018-05-10T11:49:39.888Z,55.53
2018-05-10T11:52:08.252Z,56.00
2018-05-10T11:54:36.613Z,54.77
2018-05-10T11:57:05.261Z,55.80
2018-05-10T11:59:34.569Z,55.91
2018-05-10T12:02:03.518Z,55.31
2018-05-10T12:04:31.885Z,54.34
2018-05-10T12:07:00.239Z,55.06
2018-05-10T12:09:29.449Z,56.06
2018-05-10T12:11:57.784Z,55.63
2018-05-10T12:14:26.146Z,56.83
2018-05-10T12:16:55.228Z,56.78
2018-05-10T12:19:23.594Z,57.68
2018-05-10T12:21:53.767Z,57.44
2018-05-10T12:24:22.134Z,57.60
2018-05-10T12:26:50.476Z,55.91
2018-05-10T12:29:18.856Z,56.39
2018-05-10T12:31:47.813Z,57.05
2018-05-10T12:34:16.177Z,57.49
2018-05-10T12:36:44.536Z,57.70
2018-05-10T12:39:13.227Z,57.03
2018-05-10T12:41:41.576Z,58.15
2018-05-10T12:44:10.801Z,57.02
2018-05-10T12:46:39.160Z,57.88
2018-05-10T12:49:07.531Z,57.13
2018-05-10T12:51:36.219Z,56.45
2018-05-10T12:54:05.285Z,57.00
2018-05-10T12:56:33.642Z,57.62
2018-05-10T12:59:02.245Z,57.23
2018-05-10T13:01:32.231Z,55.73
2018-05-10T13:04:00.573Z,57.20
2018-05-10T13:06:28.936Z,58.30
2018-05-10T13:08:57.276Z,58.03
2018-05-10T13:11:25.642Z,56.24
2018-05-10T13:13:54.302Z,54.99
2018-05-10T13:16:23.241Z,54.85
2018-05-10T13:18:52.449Z,54.86
2018-05-10T13:21:21.657Z,56.22
2018-05-10T13:23:50.058Z,57.58
2018-05-10T13:26:18.426Z,58.03
2018-05-10T13:28:46.789Z,58.38
2018-05-10T13:31:15.165Z,56.95
2018-05-10T13:33:43.724Z,56.37
2018-05-10T13:36:12.097Z,56.24
2018-05-10T13:38:40.438Z,55.74
2018-05-10T13:41:08.806Z,56.72
2018-05-10T13:43:37.146Z,56.96
2018-05-10T13:46:05.996Z,54.54
2018-05-10T13:48:34.790Z,54.19
2018-05-10T13:51:03.145Z,51.10
2018-05-10T13:53:31.533Z,50.84
2018-05-10T13:55:59.891Z,49.47
2018-05-10T13:58:29.315Z,48.61
2018-05-10T14:00:57.705Z,47.58
2018-05-10T14:03:26.315Z,47.28
2018-05-10T14:05:54.673Z,44.99
2018-05-10T14:08:23.748Z,44.16
2018-05-10T14:10:52.183Z,42.90
2018-05-10T14:13:20.487Z,42.48
2018-05-10T14:15:48.855Z,40.63
2018-05-10T14:18:17.465Z,40.45
2018-05-10T14:20:45.835Z,40.20
2018-05-10T14:23:14.154Z,41.26
2018-05-10T14:25:42.598Z,39.52
2018-05-10T14:28:10.856Z,40.44
2018-05-10T14:30:39.231Z,39.20
2018-05-10T14:33:07.609Z,40.87
2018-05-10T14:35:36.340Z,39.98
2018-05-10T14:38:04.670Z,39.90
2018-05-10T14:40:33.021Z,41.16
2018-05-10T14:43:02.085Z,41.12
2018-05-10T14:45:30.672Z,41.33
2018-05-10T14:47:59.045Z,42.59
2018-05-10T14:50:27.394Z,43.62
2018-05-10T14:52:55.734Z,42.95
2018-05-10T14:55:25.712Z,44.55
2018-05-10T14:57:54.056Z,44.58
2018-05-10T15:00:22.397Z,45.42
2018-05-10T15:02:50.728Z,46.77
2018-05-10T15:05:19.078Z,47.86
2018-05-10T15:07:47.419Z,48.87
2018-05-10T15:10:15.782Z,48.89
2018-05-10T15:12:44.112Z,50.09
2018-05-10T15:15:12.472Z,50.60
2018-05-10T15:17:41.237Z,50.56
2018-05-10T15:20:10.451Z,51.48
2018-05-10T15:22:38.798Z,52.68
2018-05-10T15:25:07.184Z,54.20
2018-05-10T15:27:35.561Z,54.88
2018-05-10T15:30:04.250Z,55.32
2018-05-10T15:32:32.595Z,56.25
2018-05-10T15:35:01.012Z,56.71
2018-05-10T15:37:30.618Z,57.03
2018-05-10T15:39:58.984Z,57.85
2018-05-10T15:42:27.558Z,57.92
2018-05-10T15:44:56.533Z,58.51
2018-05-10T15:47:24.867Z,58.66
2018-05-10T15:49:53.231Z,58.29
2018-05-10T15:52:21.623Z,58.99
2018-05-10T15:54:50.217Z,59.17
2018-05-10T15:57:19.280Z,59.14
2018-05-10T15:59:47.955Z,59.46
2018-05-10T16:02:18.681Z,59.49
2018-05-10T16:04:47.380Z,59.62
2018-05-10T16:07:15.759Z,60.17
2018-05-10T16:09:44.101Z,60.65
2018-05-10T16:12:12.477Z,61.17
2018-05-10T16:14:40.818Z,61.05
2018-05-10T16:17:11.052Z,61.51
2018-05-10T16:19:39.403Z,60.88
2018-05-10T16:22:08.095Z,60.88
2018-05-10T16:24:36.468Z,60.74
2018-05-10T16:27:04.843Z,60.99
2018-05-10T16:29:33.186Z,61.33
2018-05-10T16:32:01.554Z,61.42
2018-05-10T16:34:30.621Z,61.44
2018-05-10T16:36:59.899Z,61.61
2018-05-10T16:39:28.338Z,61.66
2018-05-10T16:41:56.622Z,61.66
2018-05-10T16:44:24.978Z,61.71
2018-05-10T16:46:53.400Z,61.85
2018-05-10T16:49:21.741Z,61.75
2018-05-10T16:51:50.118Z,61.60
2018-05-10T16:54:19.303Z,61.10
2018-05-10T16:56:47.678Z,60.99
2018-05-10T16:59:16.029Z,61.41
2018-05-10T17:01:45.160Z,61.67
2018-05-10T17:04:13.510Z,61.98
2018-05-10T17:06:42.162Z,61.76
2018-05-10T17:09:10.653Z,62.12
2018-05-10T17:11:39.009Z,62.34
2018-05-10T17:14:07.780Z,61.96
2018-05-10T17:16:36.172Z,62.25
2018-05-10T17:19:05.188Z,62.33
2018-05-10T17:21:34.582Z,62.12
2018-05-10T17:24:03.793Z,62.26
2018-05-10T17:26:33.129Z,61.89
2018-05-10T17:29:01.530Z,61.69
2018-05-10T17:31:32.844Z,62.20
2018-05-10T17:34:01.949Z,61.80
2018-05-10T17:36:30.413Z,61.61
2018-05-10T17:38:58.798Z,61.64
2018-05-10T17:41:29.164Z,62.22
2018-05-10T17:43:58.396Z,63.01
2018-05-10T17:46:26.760Z,63.56
2018-05-10T17:48:55.095Z,63.31
2018-05-10T17:51:23.741Z,63.77
2018-05-10T17:53:53.531Z,63.74
2018-05-10T17:56:21.898Z,63.50
2018-05-10T17:58:50.253Z,63.21
2018-05-10T18:01:18.612Z,63.32
2018-05-10T18:03:47.016Z,63.20
2018-05-10T18:06:16.408Z,63.49
2018-05-10T18:08:44.734Z,63.48
2018-05-10T18:11:13.105Z,63.41
2018-05-10T18:13:42.215Z,63.88
2018-05-10T18:16:10.551Z,63.87
2018-05-10T18:18:38.894Z,63.48
2018-05-10T18:21:07.285Z,63.45
2018-05-10T18:23:35.670Z,63.14
2018-05-10T18:26:04.815Z,63.54
2018-05-10T18:28:33.227Z,63.55
2018-05-10T18:31:01.641Z,63.55
2018-05-10T18:33:29.985Z,63.39
2018-05-10T18:35:58.349Z,63.35
2018-05-10T18:38:26.694Z,63.25
2018-05-10T18:40:55.672Z,63.04
2018-05-10T18:43:24.002Z,62.70
2018-05-10T18:45:53.294Z,62.74
2018-05-10T18:48:22.361Z,62.81
2018-05-10T18:50:50.716Z,63.41
2018-05-10T18:53:19.077Z,63.11
2018-05-10T18:55:47.481Z,63.38
2018-05-10T18:58:15.824Z,63.49
2018-05-10T19:00:44.181Z,63.13
2018-05-10T19:03:12.537Z,63.20
2018-05-10T19:05:40.893Z,63.47
2018-05-10T19:08:09.231Z,63.45
2018-05-10T19:10:37.611Z,63.35
2018-05-10T19:13:05.949Z,63.53
2018-05-10T19:15:34.378Z,63.69
2018-05-10T19:18:02.669Z,64.44
2018-05-10T19:20:31.012Z,65.47
2018-05-10T19:23:00.227Z,67.40
2018-05-10T19:25:28.565Z,67.22
2018-05-10T19:27:57.474Z,66.68
2018-05-10T19:30:25.814Z,66.15
2018-05-10T19:32:54.182Z,66.82
2018-05-10T19:35:22.526Z,66.45
2018-05-10T19:37:50.889Z,67.61
2018-05-10T19:40:19.271Z,68.13
2018-05-10T19:42:47.640Z,67.11
2018-05-10T19:45:16.090Z,67.67
2018-05-10T19:47:44.391Z,67.88
2018-05-10T19:50:12.752Z,68.04
2018-05-10T19:52:41.123Z,67.63
2018-05-10T19:55:10.062Z,66.73
2018-05-10T19:57:38.860Z,66.61
2018-05-10T20:00:07.205Z,66.12
2018-05-10T20:02:35.576Z,65.49
2018-05-10T20:05:03.925Z,64.76
2018-05-10T20:07:32.955Z,64.39
2018-05-10T20:10:02.021Z,64.12
2018-05-10T20:12:31.680Z,64.07
2018-05-10T20:15:00.524Z,64.08
2018-05-10T20:17:29.532Z,64.71
2018-05-10T20:19:57.869Z,66.68
2018-05-10T20:22:26.259Z,68.22
2018-05-10T20:24:54.590Z,68.75
2018-05-10T20:27:22.947Z,67.95
2018-05-10T20:29:51.286Z,68.63
2018-05-10T20:32:19.695Z,67.61
2018-05-10T20:34:47.999Z,67.34
2018-05-10T20:37:16.373Z,67.13
2018-05-10T20:39:45.357Z,67.00
2018-05-10T20:42:13.913Z,67.12
2018-05-10T20:44:43.191Z,66.86
2018-05-10T20:47:11.566Z,67.11
2018-05-10T20:49:39.906Z,67.03
2018-05-10T20:52:08.297Z,67.36
2018-05-10T20:54:36.642Z,67.81
2018-05-10T20:57:05.021Z,67.99
2018-05-10T20:59:33.361Z,67.97
2018-05-10T21:02:01.757Z,67.35
2018-05-10T21:04:30.108Z,67.70
2018-05-10T21:06:58.482Z,67.92
2018-05-10T21:09:26.831Z,68.12
2018-05-10T21:11:55.193Z,67.93
2018-05-10T21:14:23.536Z,68.15
2018-05-10T21:16:51.912Z,68.43
2018-05-10T21:19:20.249Z,67.94
2018-05-10T21:21:48.642Z,67.87
2018-05-10T21:24:17.003Z,67.76
2018-05-10T21:26:45.791Z,68.05
2018-05-10T21:29:14.138Z,67.96
2018-05-10T21:31:42.497Z,67.99
2018-05-10T21:34:11.223Z,68.24
2018-05-10T21:36:40.170Z,68.49
2018-05-10T21:39:08.745Z,68.32
2018-05-10T21:41:37.114Z,68.57
2018-05-10T21:44:06.790Z,68.59
2018-05-10T21:46:35.151Z,68.54
2018-05-10T21:49:03.499Z,69.05
2018-05-10T21:51:31.873Z,69.25
2018-05-10T21:54:00.228Z,69.60
2018-05-10T21:56:28.590Z,69.61
2018-05-10T21:58:57.404Z,70.20
2018-05-10T22:01:25.770Z,69.90
2018-05-10T22:03:54.114Z,69.92
2018-05-10T22:06:22.473Z,70.08
2018-05-10T22:08:50.821Z,70.23
2018-05-10T22:11:19.192Z,69.89
2018-05-10T22:13:47.547Z,69.33
2018-05-10T22:16:16.305Z,68.94
2018-05-10T22:18:45.441Z,68.46
2018-05-10T22:21:13.938Z,69.12
2018-05-10T22:23:42.272Z,69.21
2018-05-10T22:26:10.605Z,68.54
2018-05-10T22:28:39.397Z,68.41
2018-05-10T22:31:07.777Z,67.73
2018-05-10T22:33:36.135Z,66.97
2018-05-10T22:36:04.469Z,67.37
2018-05-10T22:38:32.833Z,66.68
2018-05-10T22:41:01.184Z,66.66
2018-05-10T22:43:29.818Z,65.23
2018-05-10T22:45:58.167Z,64.91
2018-05-10T22:48:26.537Z,64.79
2018-05-10T22:50:54.930Z,64.16
2018-05-10T22:53:23.706Z,63.44
2018-05-10T22:55:53.421Z,63.28
2018-05-10T22:58:21.727Z,62.32
2018-05-10T23:00:50.416Z,62.42
2018-05-10T23:03:19.126Z,61.88
2018-05-10T23:05:47.458Z,62.27
2018-05-10T23:08:16.552Z,61.85
2018-05-10T23:10:44.901Z,62.20
2018-05-10T23:13:13.864Z,62.31
2018-05-10T23:15:42.207Z,62.63
2018-05-10T23:18:10.702Z,63.00
2018-05-10T23:20:39.048Z,63.45
2018-05-10T23:23:07.411Z,63.59
2018-05-10T23:25:35.758Z,63.40
2018-05-10T23:28:04.915Z,63.60
2018-05-10T23:30:33.262Z,63.59
2018-05-10T23:33:01.620Z,62.86
2018-05-10T23:35:30.357Z,62.74
2018-05-10T23:37:58.695Z,62.57
2018-05-10T23:40:27.046Z,62.92
2018-05-10T23:42:55.398Z,63.11
2018-05-10T23:45:23.728Z,63.49
2018-05-10T23:47:52.637Z,63.63
2018-05-10T23:50:20.966Z,63.46
2018-05-10T23:52:49.329Z,63.69
2018-05-10T23:55:17.686Z,63.78
2018-05-10T23:57:46.059Z,63.92
